createdAt,value
2022-12-11T00:01:10.010Z,4.20
2022-12-11T00:03:38.141Z,4.40
2022-12-11T00:06:08.099Z,4.20
2022-12-11T00:08:36.175Z,3.78
2022-12-11T00:11:04.737Z,3.92
2022-12-11T00:13:32.734Z,3.58
2022-12-11T00:16:02.261Z,3.55
2022-12-11T00:18:30.260Z,2.75
2022-12-11T00:21:02.107Z,3.30
2022-12-11T00:23:30.094Z,2.67
2022-12-11T00:25:58.299Z,2.88
2022-12-11T00:28:26.325Z,2.55
2022-12-11T00:30:54.293Z,2.72
2022-12-11T00:33:23.625Z,2.60
2022-12-11T00:35:51.569Z,3.13
2022-12-11T00:38:22.456Z,3.55
2022-12-11T00:40:51.983Z,2.83
2022-12-11T00:43:19.953Z,3.00
2022-12-11T00:45:49.914Z,3.03
2022-12-11T00:48:17.879Z,2.80
2022-12-11T00:50:50.256Z,4.10
2022-12-11T00:53:29.149Z,3.39
2022-12-11T00:55:57.250Z,3.40
2022-12-11T00:58:25.336Z,3.05
2022-12-11T01:00:53.502Z,3.08
2022-12-11T01:03:21.519Z,3.22
2022-12-11T01:05:54.592Z,2.53
2022-12-11T01:08:22.892Z,3.05
2022-12-11T01:10:50.125Z,3.28
2022-12-11T01:13:18.204Z,2.80
2022-12-11T01:15:49.872Z,3.00
2022-12-11T01:18:17.810Z,2.80
2022-12-11T01:20:45.764Z,2.72
2022-12-11T01:23:15.335Z,3.05
2022-12-11T01:25:44.141Z,2.90
2022-12-11T01:28:12.562Z,2.53
2022-12-11T01:30:42.615Z,2.40
2022-12-11T01:33:11.049Z,4.03
2022-12-11T01:35:40.743Z,2.63
2022-12-11T01:38:08.725Z,2.10
2022-12-11T01:40:38.041Z,2.22
2022-12-11T01:43:05.998Z,2.45
2022-12-11T01:45:40.625Z,2.35
2022-12-11T01:48:12.187Z,2.38
2022-12-11T01:50:43.336Z,3.00
2022-12-11T01:53:16.043Z,2.17
2022-12-11T01:55:47.383Z,2.83
2022-12-11T01:58:17.465Z,2.90
2022-12-11T02:00:45.436Z,2.97
2022-12-11T02:03:13.584Z,3.30
2022-12-11T02:05:41.544Z,3.47
2022-12-11T02:08:10.046Z,3.28
2022-12-11T02:11:06.577Z,3.05
2022-12-11T02:13:40.365Z,3.45
2022-12-11T02:16:18.710Z,3.13
2022-12-11T02:18:54.959Z,3.08
2022-12-11T02:21:27.816Z,3.38
2022-12-11T02:24:08.149Z,3.28
2022-12-11T02:26:59.883Z,3.47
2022-12-11T02:29:34.717Z,3.45
2022-12-11T02:32:09.839Z,3.90
2022-12-11T02:34:43.132Z,3.30
2022-12-11T02:37:14.391Z,3.25
2022-12-11T02:39:44.477Z,3.55
2022-12-11T02:42:13.758Z,3.10
2022-12-11T02:44:45.002Z,3.33
2022-12-11T02:47:15.869Z,3.33
2022-12-11T02:49:46.022Z,3.50
2022-12-11T02:52:17.763Z,3.50
2022-12-11T02:54:47.494Z,3.10
2022-12-11T02:57:18.956Z,3.50
2022-12-11T02:59:48.258Z,3.63
2022-12-11T03:02:18.779Z,3.53
2022-12-11T03:04:48.146Z,3.17
2022-12-11T03:07:18.940Z,3.40
2022-12-11T03:09:49.093Z,2.60
2022-12-11T03:12:20.347Z,3.15
2022-12-11T03:14:50.352Z,2.90
2022-12-11T03:17:22.384Z,2.83
2022-12-11T03:20:01.126Z,2.80
2022-12-11T03:22:38.905Z,3.30
2022-12-11T03:25:12.065Z,2.80
2022-12-11T03:27:47.466Z,2.47
2022-12-11T03:30:19.304Z,2.58
2022-12-11T03:32:52.619Z,2.92
2022-12-11T03:35:25.796Z,2.80
2022-12-11T03:37:55.841Z,2.58
2022-12-11T03:40:26.857Z,2.78
2022-12-11T03:42:58.412Z,2.70
2022-12-11T03:45:30.639Z,2.53
2022-12-11T03:48:01.915Z,2.60
2022-12-11T03:50:33.321Z,3.03
2022-12-11T03:53:02.562Z,2.33
2022-12-11T03:55:31.324Z,2.78
2022-12-11T03:57:59.394Z,2.85
2022-12-11T04:00:29.058Z,2.70
2022-12-11T04:03:15.805Z,2.92
2022-12-11T04:05:46.195Z,2.88
2022-12-11T04:08:14.485Z,3.13
2022-12-11T04:10:42.885Z,3.60
2022-12-11T04:13:11.440Z,2.92
2022-12-11T04:15:40.432Z,3.28
2022-12-11T04:18:27.030Z,3.67
2022-12-11T04:21:12.917Z,3.08
2022-12-11T04:23:58.905Z,3.05
2022-12-11T04:26:27.030Z,3.92
2022-12-11T04:28:55.012Z,3.45
2022-12-11T04:31:24.416Z,3.42
2022-12-11T04:33:53.172Z,3.67
2022-12-11T04:36:21.119Z,4.22
2022-12-11T04:38:49.086Z,3.38
2022-12-11T04:41:17.681Z,4.15
2022-12-11T04:43:46.047Z,3.33
2022-12-11T04:46:15.898Z,4.05
2022-12-11T04:48:45.924Z,3.53
2022-12-11T04:51:14.492Z,3.17
2022-12-11T04:53:42.754Z,3.22
2022-12-11T04:56:13.711Z,4.35
2022-12-11T04:58:42.769Z,4.25
2022-12-11T05:01:11.866Z,3.80
2022-12-11T05:03:40.465Z,3.75
2022-12-11T05:06:11.459Z,3.42
2022-12-11T05:08:41.408Z,4.05
2022-12-11T05:11:11.578Z,3.05
2022-12-11T05:13:40.331Z,3.75
2022-12-11T05:16:10.525Z,4.15
2022-12-11T05:18:38.864Z,4.18
2022-12-11T05:21:09.142Z,3.45
2022-12-11T05:23:39.016Z,3.08
2022-12-11T05:26:09.455Z,3.40
2022-12-11T05:28:39.784Z,5.47
2022-12-11T05:31:09.561Z,4.47
2022-12-11T05:33:37.638Z,4.22
2022-12-11T05:36:07.195Z,3.88
2022-12-11T05:38:35.357Z,3.00
2022-12-11T05:41:08.737Z,3.58
2022-12-11T05:43:38.010Z,4.20
2022-12-11T05:46:07.325Z,3.47
2022-12-11T05:48:35.874Z,4.38
2022-12-11T05:51:04.886Z,3.38
2022-12-11T05:53:33.481Z,2.90
2022-12-11T05:56:08.724Z,3.08
2022-12-11T05:58:36.907Z,3.80
2022-12-11T06:01:08.912Z,3.42
2022-12-11T06:03:36.892Z,4.10
2022-12-11T06:06:05.805Z,3.92
2022-12-11T06:08:34.580Z,2.70
2022-12-11T06:11:02.643Z,3.50
2022-12-11T06:13:32.060Z,3.35
2022-12-11T06:16:02.793Z,2.38
2022-12-11T06:18:30.878Z,3.25
2022-12-11T06:20:58.922Z,3.47
2022-12-11T06:23:26.898Z,4.35
2022-12-11T06:25:54.869Z,4.25
2022-12-11T06:28:22.839Z,3.63
2022-12-11T06:30:52.239Z,4.22
2022-12-11T06:33:20.167Z,4.15
2022-12-11T06:35:48.185Z,4.00
2022-12-11T06:38:16.128Z,4.28
2022-12-11T06:40:44.115Z,3.70
2022-12-11T06:43:12.083Z,4.55
2022-12-11T06:45:40.264Z,5.22
2022-12-11T06:48:09.712Z,3.85
2022-12-11T06:50:39.303Z,1.73
2022-12-11T06:53:07.379Z,1.98
2022-12-11T06:55:36.265Z,2.45
2022-12-11T06:58:04.752Z,5.50
2022-12-11T07:00:33.013Z,4.55
2022-12-11T07:03:00.945Z,4.20
2022-12-11T07:05:30.277Z,4.60
2022-12-11T07:07:58.531Z,3.30
2022-12-11T07:10:27.330Z,4.72
2022-12-11T07:12:55.805Z,3.58
2022-12-11T07:15:23.780Z,3.85
2022-12-11T07:17:51.769Z,3.67
2022-12-11T07:20:19.782Z,4.03
2022-12-11T07:22:49.153Z,1.92
2022-12-11T07:25:17.422Z,2.47
2022-12-11T07:27:45.365Z,3.65
2022-12-11T07:30:14.350Z,4.13
2022-12-11T07:32:42.416Z,3.95
2022-12-11T07:35:11.163Z,3.25
2022-12-11T07:37:41.736Z,3.47
2022-12-11T07:40:12.186Z,4.95
2022-12-11T07:42:45.936Z,4.03
2022-12-11T07:45:14.590Z,1.35
2022-12-11T07:47:42.831Z,3.78
2022-12-11T07:50:11.305Z,3.65
2022-12-11T07:52:39.872Z,2.70
2022-12-11T07:55:11.286Z,3.08
2022-12-11T07:57:41.239Z,2.97
2022-12-11T08:00:11.426Z,2.55
2022-12-11T08:02:42.565Z,4.15
2022-12-11T08:05:12.371Z,2.53
2022-12-11T08:07:40.947Z,3.35
2022-12-11T08:10:09.444Z,4.05
2022-12-11T08:12:37.445Z,4.00
2022-12-11T08:15:08.331Z,5.25
2022-12-11T08:17:40.024Z,3.40
2022-12-11T08:20:09.434Z,4.03
2022-12-11T08:22:37.410Z,3.45
2022-12-11T08:25:08.680Z,3.33
2022-12-11T08:27:36.844Z,3.55
2022-12-11T08:30:07.390Z,3.88
2022-12-11T08:32:35.829Z,2.78
2022-12-11T08:35:04.231Z,4.03
2022-12-11T08:37:32.281Z,3.08
2022-12-11T08:40:00.812Z,3.40
2022-12-11T08:42:31.636Z,1.63
2022-12-11T08:44:59.635Z,3.30
2022-12-11T08:47:31.253Z,3.53
2022-12-11T08:49:59.216Z,3.60
2022-12-11T08:52:28.017Z,3.45
2022-12-11T08:54:55.959Z,3.88
2022-12-11T08:57:23.936Z,3.28
2022-12-11T08:59:51.882Z,3.80
2022-12-11T09:02:19.895Z,3.88
2022-12-11T09:04:51.762Z,1.25
2022-12-11T09:07:19.720Z,3.10
2022-12-11T09:09:47.814Z,3.60
2022-12-11T09:12:15.789Z,2.47
2022-12-11T09:14:44.029Z,3.45
2022-12-11T09:17:12.056Z,4.45
2022-12-11T09:19:40.145Z,2.85
2022-12-11T09:22:11.168Z,2.47
2022-12-11T09:24:39.279Z,3.00
2022-12-11T09:27:10.274Z,3.83
2022-12-11T09:29:38.950Z,3.33
2022-12-11T09:32:07.253Z,3.95
2022-12-11T09:34:35.255Z,3.28
2022-12-11T09:37:03.257Z,4.80
2022-12-11T09:39:32.682Z,4.28
2022-12-11T09:42:09.542Z,2.30
2022-12-11T09:44:44.289Z,4.53
2022-12-11T09:47:24.390Z,2.72
2022-12-11T09:49:59.757Z,3.85
2022-12-11T09:52:35.512Z,3.58
2022-12-11T09:55:14.220Z,1.67
2022-12-11T09:57:52.561Z,4.43
2022-12-11T10:00:27.485Z,3.35
2022-12-11T10:03:26.071Z,5.38
2022-12-11T10:06:04.592Z,2.80
2022-12-11T10:08:38.085Z,3.65
2022-12-11T10:11:24.249Z,2.80
2022-12-11T10:14:02.553Z,3.20
2022-12-11T10:16:36.925Z,3.60
2022-12-11T10:19:05.102Z,2.85
2022-12-11T10:21:40.716Z,3.47
2022-12-11T10:24:40.784Z,1.88
2022-12-11T10:27:15.994Z,3.55
2022-12-11T10:29:44.006Z,4.30
2022-12-11T10:32:22.793Z,3.30
2022-12-11T10:34:55.291Z,4.20
2022-12-11T10:37:23.376Z,5.20
2022-12-11T10:39:51.346Z,4.03
2022-12-11T10:42:23.044Z,4.22
2022-12-11T10:44:59.701Z,2.42
2022-12-11T10:47:28.143Z,2.72
2022-12-11T10:49:58.356Z,4.25
2022-12-11T10:52:29.986Z,5.18
2022-12-11T10:55:01.122Z,4.10
2022-12-11T10:57:32.970Z,2.92
2022-12-11T11:00:01.639Z,5.22
2022-12-11T11:02:32.411Z,3.20
2022-12-11T11:05:11.668Z,2.60
2022-12-11T11:07:39.948Z,5.75
2022-12-11T11:10:16.493Z,4.57
2022-12-11T11:12:47.340Z,4.57
2022-12-11T11:15:18.741Z,5.45
2022-12-11T11:17:54.926Z,4.32
2022-12-11T11:20:26.706Z,4.90
2022-12-11T11:22:56.906Z,4.10
2022-12-11T11:25:26.711Z,2.90
2022-12-11T11:27:58.086Z,4.70
2022-12-11T11:30:28.226Z,3.00
2022-12-11T11:32:58.089Z,3.83
2022-12-11T11:35:28.094Z,1.98
2022-12-11T11:38:03.372Z,4.15
2022-12-11T11:40:38.870Z,2.97
2022-12-11T11:43:29.233Z,3.30
2022-12-11T11:46:18.824Z,1.98
2022-12-11T11:48:57.033Z,4.15
2022-12-11T11:51:31.425Z,3.75
2022-12-11T11:54:02.526Z,2.20
2022-12-11T11:56:35.010Z,2.90
2022-12-11T11:59:13.351Z,1.73
2022-12-11T12:01:42.638Z,3.90
2022-12-11T12:04:11.834Z,3.72
2022-12-11T12:07:10.069Z,2.17
2022-12-11T12:09:48.175Z,3.00
2022-12-11T12:12:27.546Z,3.88
2022-12-11T12:15:18.240Z,4.38
2022-12-11T12:17:55.781Z,4.47
2022-12-11T12:20:31.757Z,2.60
2022-12-11T12:23:12.033Z,4.25
2022-12-11T12:25:44.948Z,4.65
2022-12-11T12:28:23.269Z,4.78
2022-12-11T12:31:05.741Z,3.70
2022-12-11T12:33:45.792Z,3.58
2022-12-11T12:36:22.502Z,4.50
2022-12-11T12:38:56.123Z,5.38
2022-12-11T12:41:33.478Z,5.28
2022-12-11T12:44:13.538Z,4.28
2022-12-11T12:46:54.068Z,4.63
2022-12-11T12:49:38.341Z,4.85
2022-12-11T12:52:08.479Z,3.42
2022-12-11T12:54:38.013Z,3.90
2022-12-11T12:57:06.844Z,4.60
2022-12-11T12:59:34.818Z,3.17
2022-12-11T13:02:08.798Z,3.20
2022-12-11T13:04:58.183Z,4.53
2022-12-11T13:07:29.681Z,4.90
2022-12-11T13:10:05.506Z,2.25
2022-12-11T13:12:41.740Z,5.15
2022-12-11T13:15:28.886Z,4.93
2022-12-11T13:17:58.882Z,2.45
2022-12-11T13:20:29.024Z,10.18
2022-12-11T13:23:15.992Z,3.95
2022-12-11T13:25:53.106Z,8.40
2022-12-11T13:28:28.141Z,7.78
2022-12-11T13:31:24.113Z,3.42
2022-12-11T13:33:56.155Z,7.22
2022-12-11T13:36:37.647Z,7.75
2022-12-11T13:39:10.816Z,5.80
2022-12-11T13:41:39.853Z,8.60
2022-12-11T13:44:09.222Z,2.55
2022-12-11T13:46:40.290Z,5.65
2022-12-11T13:49:23.901Z,4.75
2022-12-11T13:51:57.460Z,5.60
2022-12-11T13:54:26.584Z,1.45
2022-12-11T13:56:56.576Z,4.93
2022-12-11T13:59:27.649Z,6.05
2022-12-11T14:02:01.555Z,5.82
2022-12-11T14:04:32.645Z,5.28
2022-12-11T14:07:02.245Z,1.88
2022-12-11T14:09:30.433Z,4.80
2022-12-11T14:11:59.313Z,5.05
2022-12-11T14:14:40.941Z,4.57
2022-12-11T14:17:14.027Z,4.47
2022-12-11T14:19:47.782Z,4.55
2022-12-11T14:22:21.270Z,4.75
2022-12-11T14:24:51.736Z,5.72
2022-12-11T14:27:21.110Z,4.53
2022-12-11T14:29:50.031Z,3.25
2022-12-11T14:32:22.028Z,6.78
2022-12-11T14:34:53.042Z,2.15
2022-12-11T14:37:23.010Z,3.17
2022-12-11T14:39:57.642Z,5.55
2022-12-11T14:42:31.164Z,6.82
2022-12-11T14:45:04.195Z,8.40
2022-12-11T14:47:35.912Z,5.35
2022-12-11T14:50:07.972Z,3.95
2022-12-11T14:52:40.202Z,1.92
2022-12-11T14:55:13.950Z,1.65
2022-12-11T14:57:45.221Z,4.03
2022-12-11T15:00:24.453Z,4.05
2022-12-11T15:03:00.346Z,3.38
2022-12-11T15:05:33.354Z,2.78
2022-12-11T15:08:24.247Z,5.05
2022-12-11T15:11:04.694Z,3.97
2022-12-11T15:13:33.907Z,3.67
2022-12-11T15:16:07.282Z,4.13
2022-12-11T15:18:39.348Z,2.15
2022-12-11T15:21:13.211Z,5.00
2022-12-11T15:23:51.636Z,6.32
2022-12-11T15:26:20.317Z,5.28
2022-12-11T15:29:00.573Z,5.47
2022-12-11T15:31:31.387Z,3.08
2022-12-11T15:34:02.195Z,2.60
2022-12-11T15:36:35.619Z,4.50
2022-12-11T15:39:05.535Z,6.10
2022-12-11T15:41:34.646Z,2.22
2022-12-11T15:44:04.745Z,5.60
2022-12-11T15:46:36.978Z,6.53
2022-12-11T15:49:11.919Z,4.82
2022-12-11T15:51:43.025Z,5.97
2022-12-11T15:54:11.557Z,6.35
2022-12-11T15:56:39.867Z,7.47
2022-12-11T15:59:07.958Z,6.18
2022-12-11T16:01:35.938Z,10.48
2022-12-11T16:04:05.300Z,7.55
2022-12-11T16:06:34.036Z,8.40
2022-12-11T16:09:04.255Z,7.47
2022-12-11T16:11:32.173Z,6.97
2022-12-11T16:14:03.341Z,7.90
2022-12-11T16:16:31.715Z,7.20
2022-12-11T16:19:02.042Z,6.25
2022-12-11T16:21:30.189Z,5.72
2022-12-11T16:23:58.115Z,4.70
2022-12-11T16:26:29.692Z,4.18
2022-12-11T16:28:58.157Z,5.22
2022-12-11T16:31:26.246Z,7.72
2022-12-11T16:33:54.225Z,3.92
2022-12-11T16:36:22.318Z,7.13
2022-12-11T16:38:53.802Z,6.53
2022-12-11T16:41:23.678Z,5.78
2022-12-11T16:43:54.315Z,6.82
2022-12-11T16:46:23.933Z,6.90
2022-12-11T16:48:51.915Z,7.13
2022-12-11T16:51:19.876Z,6.60
2022-12-11T16:53:48.106Z,7.68
2022-12-11T16:56:16.039Z,5.07
2022-12-11T16:58:44.161Z,8.32
2022-12-11T17:01:15.151Z,6.65
2022-12-11T17:03:44.098Z,7.35
2022-12-11T17:06:14.419Z,7.80
2022-12-11T17:08:42.888Z,4.40
2022-12-11T17:11:13.145Z,6.65
2022-12-11T17:13:41.428Z,8.85
2022-12-11T17:16:11.515Z,6.70
2022-12-11T17:18:43.011Z,4.88
2022-12-11T17:21:13.462Z,8.75
2022-12-11T17:23:41.678Z,3.88
2022-12-11T17:26:10.275Z,6.82
2022-12-11T17:28:39.782Z,5.03
2022-12-11T17:31:09.229Z,6.85
2022-12-11T17:33:40.519Z,7.60
2022-12-11T17:36:13.985Z,6.45
2022-12-11T17:38:42.004Z,6.07
2022-12-11T17:41:20.526Z,6.50
2022-12-11T17:43:49.171Z,8.57
2022-12-11T17:46:17.472Z,7.15
2022-12-11T17:48:46.804Z,7.35
2022-12-11T17:51:20.993Z,8.63
2022-12-11T17:53:49.190Z,7.55
2022-12-11T17:56:17.425Z,8.57
2022-12-11T17:58:45.495Z,8.70
2022-12-11T18:01:14.144Z,8.60
2022-12-11T18:03:42.697Z,7.63
2022-12-11T18:06:14.321Z,5.60
2022-12-11T18:08:44.259Z,6.97
2022-12-11T18:11:13.790Z,9.25
2022-12-11T18:13:42.279Z,8.18
2022-12-11T18:16:13.660Z,6.38
2022-12-11T18:18:43.069Z,5.68
2022-12-11T18:21:16.036Z,6.60
2022-12-11T18:23:49.528Z,6.78
2022-12-11T18:26:18.223Z,7.55
2022-12-11T18:28:47.012Z,3.55
2022-12-11T18:31:15.387Z,5.13
2022-12-11T18:33:46.983Z,6.80
2022-12-11T18:36:18.040Z,6.00
2022-12-11T18:38:47.028Z,2.95
2022-12-11T18:41:17.103Z,6.25
2022-12-11T18:43:45.715Z,3.72
2022-12-11T18:46:16.124Z,4.88
2022-12-11T18:48:47.865Z,3.83
2022-12-11T18:51:23.852Z,4.88
2022-12-11T18:53:52.468Z,3.47
2022-12-11T18:56:22.869Z,6.32
2022-12-11T18:58:52.684Z,5.80
2022-12-11T19:01:23.279Z,6.47
2022-12-11T19:03:51.664Z,8.15
2022-12-11T19:06:25.214Z,5.63
2022-12-11T19:08:53.459Z,7.07
2022-12-11T19:11:24.500Z,9.13
2022-12-11T19:13:55.032Z,7.97
2022-12-11T19:16:26.947Z,6.78
2022-12-11T19:18:55.148Z,8.18
2022-12-11T19:21:24.742Z,7.57
2022-12-11T19:23:52.962Z,7.10
2022-12-11T19:26:24.262Z,2.97
2022-12-11T19:28:53.688Z,5.53
2022-12-11T19:31:23.595Z,6.40
2022-12-11T19:33:51.573Z,5.63
2022-12-11T19:36:21.863Z,6.18
2022-12-11T19:38:55.317Z,6.70
2022-12-11T19:41:27.588Z,5.75
2022-12-11T19:43:57.348Z,4.47
2022-12-11T19:46:26.217Z,4.28
2022-12-11T19:48:56.153Z,4.63
2022-12-11T19:51:26.263Z,6.70
2022-12-11T19:53:56.048Z,3.90
2022-12-11T19:56:24.640Z,7.60
2022-12-11T19:58:54.011Z,4.95
2022-12-11T20:01:25.684Z,2.45
2022-12-11T20:03:54.859Z,6.57
2022-12-11T20:06:23.201Z,7.47
2022-12-11T20:08:51.960Z,5.53
2022-12-11T20:11:21.346Z,4.18
2022-12-11T20:13:50.016Z,3.17
2022-12-11T20:16:28.838Z,4.60
2022-12-11T20:19:08.696Z,3.13
2022-12-11T20:21:36.645Z,7.22
2022-12-11T20:24:04.878Z,7.40
2022-12-11T20:26:36.437Z,5.90
2022-12-11T20:29:07.306Z,3.70
2022-12-11T20:31:36.787Z,7.50
2022-12-11T20:34:05.826Z,8.05
2022-12-11T20:36:34.394Z,8.95
2022-12-11T20:39:02.917Z,7.80
2022-12-11T20:41:31.154Z,8.98
2022-12-11T20:44:00.456Z,8.18
2022-12-11T20:46:29.197Z,9.10
2022-12-11T20:48:59.388Z,5.43
2022-12-11T20:51:33.190Z,6.63
2022-12-11T20:54:01.496Z,6.25
2022-12-11T20:56:32.028Z,11.85
2022-12-11T20:59:01.631Z,8.10
2022-12-11T21:01:31.753Z,9.15
2022-12-11T21:04:00.611Z,8.73
2022-12-11T21:06:31.573Z,8.57
2022-12-11T21:09:00.587Z,5.10
2022-12-11T21:11:29.183Z,7.93
2022-12-11T21:13:57.163Z,3.90
2022-12-11T21:16:26.816Z,3.97
2022-12-11T21:18:56.102Z,3.45
2022-12-11T21:21:24.880Z,7.22
2022-12-11T21:23:53.137Z,6.85
2022-12-11T21:26:21.888Z,5.35
2022-12-11T21:28:52.838Z,4.95
2022-12-11T21:31:21.293Z,6.60
2022-12-11T21:33:50.709Z,4.70
2022-12-11T21:36:19.012Z,4.57
2022-12-11T21:38:47.593Z,7.65
2022-12-11T21:41:18.121Z,6.57
2022-12-11T21:44:40.881Z,6.18
2022-12-11T21:46:36.499Z,3.22
2022-12-11T21:49:05.840Z,3.45
2022-12-11T21:51:38.709Z,6.15
2022-12-11T21:54:13.117Z,4.88
2022-12-11T21:56:42.118Z,7.10
2022-12-11T21:59:10.262Z,3.33
2022-12-11T22:01:41.991Z,5.40
2022-12-11T22:04:12.831Z,5.63
2022-12-11T22:06:43.553Z,6.75
2022-12-11T22:09:13.010Z,7.80
2022-12-11T22:11:42.641Z,4.95
2022-12-11T22:14:13.430Z,7.53
2022-12-11T22:16:41.402Z,6.05
2022-12-11T22:19:10.756Z,9.07
2022-12-11T22:21:39.278Z,5.70
2022-12-11T22:24:07.494Z,5.32
2022-12-11T22:26:35.448Z,6.18
2022-12-11T22:29:03.587Z,8.32
2022-12-11T22:31:31.575Z,6.00
2022-12-11T22:33:59.634Z,6.88
2022-12-11T22:36:28.975Z,8.32
2022-12-11T22:38:56.946Z,3.25
2022-12-11T22:41:27.303Z,5.95
2022-12-11T22:43:56.168Z,5.68
2022-12-11T22:46:26.085Z,10.10
2022-12-11T22:48:54.416Z,6.15
2022-12-11T22:51:23.089Z,6.13
2022-12-11T22:53:52.407Z,7.05
2022-12-11T22:56:20.371Z,6.97
2022-12-11T22:58:50.530Z,4.47
2022-12-11T23:01:20.991Z,4.63
2022-12-11T23:03:49.608Z,5.82
2022-12-11T23:06:21.097Z,5.70
2022-12-11T23:08:49.516Z,5.22
2022-12-11T23:11:22.098Z,6.45
2022-12-11T23:13:50.069Z,5.22
2022-12-11T23:16:18.207Z,5.57
2022-12-11T23:18:46.233Z,3.70
2022-12-11T23:21:14.901Z,4.03
2022-12-11T23:23:43.218Z,4.60
2022-12-11T23:26:12.687Z,6.07
2022-12-11T23:28:42.756Z,8.02
2022-12-11T23:31:11.214Z,8.13
2022-12-11T23:33:39.772Z,7.00
2022-12-11T23:36:08.554Z,7.60
2022-12-11T23:38:36.668Z,5.45
2022-12-11T23:41:06.263Z,3.50
2022-12-11T23:43:38.198Z,4.72
2022-12-11T23:46:11.319Z,5.00
2022-12-11T23:48:40.221Z,6.68
2022-12-11T23:51:14.112Z,6.03
2022-12-11T23:53:42.957Z,8.15
2022-12-11T23:56:15.540Z,2.63
2022-12-11T23:58:43.545Z,6.68
